sensor_id;sensor_type;location;lat;lon;timestamp;P1;durP1;ratioP1;P2;durP2;ratioP2
13163;SDS011;6647;53.688;10.746;2023-04-15T00:01:02;6.95;;;5.10;;
13163;SDS011;6647;53.688;10.746;2023-04-15T00:02:25;7.82;;;6.47;;
13163;SDS011;6647;53.688;10.746;2023-04-15T00:03:46;7.32;;;5.93;;
13163;SDS011;6647;53.688;10.746;2023-04-15T00:05:07;5.57;;;4.82;;
13163;SDS011;6647;53.688;10.746;2023-04-15T00:06:28;8.18;;;5.93;;
13163;SDS011;6647;53.688;10.746;2023-04-15T00:07:48;7.00;;;5.95;;
13163;SDS011;6647;53.688;10.746;2023-04-15T00:09:10;8.20;;;6.15;;
13163;SDS011;6647;53.688;10.746;2023-04-15T00:10:31;8.93;;;6.22;;
13163;SDS011;6647;53.688;10.746;2023-04-15T00:11:52;7.68;;;5.60;;
13163;SDS011;6647;53.688;10.746;2023-04-15T00:13:13;8.98;;;6.07;;
13163;SDS011;6647;53.688;10.746;2023-04-15T00:14:34;8.18;;;5.70;;
13163;SDS011;6647;53.688;10.746;2023-04-15T00:15:56;8.98;;;6.50;;
13163;SDS011;6647;53.688;10.746;2023-04-15T00:17:17;8.18;;;5.93;;
13163;SDS011;6647;53.688;10.746;2023-04-15T00:18:38;8.52;;;6.32;;
13163;SDS011;6647;53.688;10.746;2023-04-15T00:19:59;8.65;;;6.20;;
13163;SDS011;6647;53.688;10.746;2023-04-15T00:21:20;8.88;;;6.93;;
13163;SDS011;6647;53.688;10.746;2023-04-15T00:22:41;8.57;;;6.35;;
13163;SDS011;6647;53.688;10.746;2023-04-15T00:24:02;9.57;;;6.43;;
13163;SDS011;6647;53.688;10.746;2023-04-15T00:25:23;7.68;;;6.25;;
13163;SDS011;6647;53.688;10.746;2023-04-15T00:26:43;8.05;;;6.15;;
13163;SDS011;6647;53.688;10.746;2023-04-15T00:28:04;8.55;;;6.45;;
13163;SDS011;6647;53.688;10.746;2023-04-15T00:29:25;7.50;;;6.22;;
13163;SDS011;6647;53.688;10.746;2023-04-15T00:30:46;9.02;;;6.65;;
13163;SDS011;6647;53.688;10.746;2023-04-15T00:32:07;9.02;;;7.00;;
13163;SDS011;6647;53.688;10.746;2023-04-15T00:33:28;11.48;;;6.78;;
13163;SDS011;6647;53.688;10.746;2023-04-15T00:34:49;10.88;;;7.05;;
13163;SDS011;6647;53.688;10.746;2023-04-15T00:36:10;10.00;;;7.32;;
13163;SDS011;6647;53.688;10.746;2023-04-15T00:37:31;10.05;;;7.25;;
13163;SDS011;6647;53.688;10.746;2023-04-15T00:38:52;11.68;;;7.72;;
13163;SDS011;6647;53.688;10.746;2023-04-15T00:40:13;10.95;;;7.00;;
13163;SDS011;6647;53.688;10.746;2023-04-15T00:41:38;12.85;;;8.30;;
13163;SDS011;6647;53.688;10.746;2023-04-15T00:42:59;10.90;;;7.50;;
13163;SDS011;6647;53.688;10.746;2023-04-15T00:44:20;11.18;;;7.38;;
13163;SDS011;6647;53.688;10.746;2023-04-15T00:45:41;11.95;;;8.10;;
13163;SDS011;6647;53.688;10.746;2023-04-15T00:47:02;13.55;;;8.68;;
13163;SDS011;6647;53.688;10.746;2023-04-15T00:48:24;14.88;;;8.13;;
13163;SDS011;6647;53.688;10.746;2023-04-15T00:49:47;15.43;;;8.80;;
13163;SDS011;6647;53.688;10.746;2023-04-15T00:51:08;15.63;;;9.00;;
13163;SDS011;6647;53.688;10.746;2023-04-15T00:52:28;14.02;;;8.77;;
13163;SDS011;6647;53.688;10.746;2023-04-15T00:53:50;14.65;;;9.57;;
13163;SDS011;6647;53.688;10.746;2023-04-15T00:55:11;16.30;;;10.00;;
13163;SDS011;6647;53.688;10.746;2023-04-15T00:56:35;15.85;;;9.10;;
13163;SDS011;6647;53.688;10.746;2023-04-15T00:57:57;18.42;;;10.15;;
13163;SDS011;6647;53.688;10.746;2023-04-15T00:59:18;15.90;;;9.00;;
13163;SDS011;6647;53.688;10.746;2023-04-15T01:00:40;20.30;;;10.65;;
13163;SDS011;6647;53.688;10.746;2023-04-15T01:02:02;17.58;;;9.90;;
13163;SDS011;6647;53.688;10.746;2023-04-15T01:03:23;20.17;;;11.07;;
13163;SDS011;6647;53.688;10.746;2023-04-15T01:04:44;17.15;;;10.88;;
13163;SDS011;6647;53.688;10.746;2023-04-15T01:06:05;18.80;;;10.52;;
13163;SDS011;6647;53.688;10.746;2023-04-15T01:07:27;17.70;;;11.05;;
13163;SDS011;6647;53.688;10.746;2023-04-15T01:08:48;18.90;;;10.68;;
13163;SDS011;6647;53.688;10.746;2023-04-15T01:10:10;20.80;;;11.93;;
13163;SDS011;6647;53.688;10.746;2023-04-15T01:11:31;18.10;;;11.32;;
13163;SDS011;6647;53.688;10.746;2023-04-15T01:12:54;23.75;;;13.18;;
13163;SDS011;6647;53.688;10.746;2023-04-15T01:14:16;21.60;;;12.75;;
13163;SDS011;6647;53.688;10.746;2023-04-15T01:15:37;19.90;;;11.95;;
13163;SDS011;6647;53.688;10.746;2023-04-15T01:16:58;21.45;;;12.13;;
13163;SDS011;6647;53.688;10.746;2023-04-15T01:18:19;21.83;;;12.15;;
13163;SDS011;6647;53.688;10.746;2023-04-15T01:19:40;24.10;;;13.50;;
13163;SDS011;6647;53.688;10.746;2023-04-15T01:21:02;23.58;;;12.98;;
13163;SDS011;6647;53.688;10.746;2023-04-15T01:22:25;27.17;;;13.75;;
13163;SDS011;6647;53.688;10.746;2023-04-15T01:23:46;24.15;;;12.43;;
13163;SDS011;6647;53.688;10.746;2023-04-15T01:25:12;26.40;;;13.70;;
13163;SDS011;6647;53.688;10.746;2023-04-15T01:26:41;23.25;;;12.50;;
13163;SDS011;6647;53.688;10.746;2023-04-15T01:28:03;25.10;;;13.05;;
13163;SDS011;6647;53.688;10.746;2023-04-15T01:29:24;23.92;;;14.13;;
13163;SDS011;6647;53.688;10.746;2023-04-15T01:30:45;23.23;;;13.57;;
13163;SDS011;6647;53.688;10.746;2023-04-15T01:32:06;25.30;;;14.45;;
13163;SDS011;6647;53.688;10.746;2023-04-15T01:33:27;28.10;;;14.50;;
13163;SDS011;6647;53.688;10.746;2023-04-15T01:34:47;26.75;;;14.88;;
13163;SDS011;6647;53.688;10.746;2023-04-15T01:36:09;25.73;;;14.98;;
13163;SDS011;6647;53.688;10.746;2023-04-15T01:37:30;29.13;;;16.60;;
13163;SDS011;6647;53.688;10.746;2023-04-15T01:38:51;29.45;;;15.55;;
13163;SDS011;6647;53.688;10.746;2023-04-15T01:40:12;23.92;;;14.57;;
13163;SDS011;6647;53.688;10.746;2023-04-15T01:41:34;27.58;;;15.43;;
13163;SDS011;6647;53.688;10.746;2023-04-15T01:42:55;29.20;;;16.23;;
13163;SDS011;6647;53.688;10.746;2023-04-15T01:44:16;30.10;;;16.58;;
13163;SDS011;6647;53.688;10.746;2023-04-15T01:45:37;38.08;;;18.48;;
13163;SDS011;6647;53.688;10.746;2023-04-15T01:46:58;31.30;;;17.45;;
13163;SDS011;6647;53.688;10.746;2023-04-15T01:48:19;31.50;;;19.08;;
13163;SDS011;6647;53.688;10.746;2023-04-15T01:49:40;36.95;;;19.80;;
13163;SDS011;6647;53.688;10.746;2023-04-15T01:51:01;32.22;;;19.15;;
13163;SDS011;6647;53.688;10.746;2023-04-15T01:52:22;31.55;;;19.00;;
13163;SDS011;6647;53.688;10.746;2023-04-15T01:53:43;32.42;;;18.73;;
13163;SDS011;6647;53.688;10.746;2023-04-15T01:55:05;33.10;;;20.00;;
13163;SDS011;6647;53.688;10.746;2023-04-15T01:56:27;34.83;;;20.70;;
13163;SDS011;6647;53.688;10.746;2023-04-15T01:57:48;37.03;;;20.27;;
13163;SDS011;6647;53.688;10.746;2023-04-15T01:59:09;40.15;;;22.27;;
13163;SDS011;6647;53.688;10.746;2023-04-15T02:00:29;38.83;;;23.20;;
13163;SDS011;6647;53.688;10.746;2023-04-15T02:01:51;44.83;;;22.98;;
13163;SDS011;6647;53.688;10.746;2023-04-15T02:03:12;43.85;;;24.02;;
13163;SDS011;6647;53.688;10.746;2023-04-15T02:04:33;43.88;;;25.17;;
13163;SDS011;6647;53.688;10.746;2023-04-15T02:05:54;44.47;;;22.40;;
13163;SDS011;6647;53.688;10.746;2023-04-15T02:07:15;43.05;;;22.48;;
13163;SDS011;6647;53.688;10.746;2023-04-15T02:08:36;49.92;;;25.20;;
13163;SDS011;6647;53.688;10.746;2023-04-15T02:09:57;44.15;;;24.23;;
13163;SDS011;6647;53.688;10.746;2023-04-15T02:11:18;45.38;;;23.83;;
13163;SDS011;6647;53.688;10.746;2023-04-15T02:12:39;49.50;;;26.60;;
13163;SDS011;6647;53.688;10.746;2023-04-15T02:14:00;47.25;;;24.58;;
13163;SDS011;6647;53.688;10.746;2023-04-15T02:15:21;41.60;;;24.73;;
13163;SDS011;6647;53.688;10.746;2023-04-15T02:16:42;42.30;;;22.65;;
13163;SDS011;6647;53.688;10.746;2023-04-15T02:18:03;49.47;;;25.38;;
13163;SDS011;6647;53.688;10.746;2023-04-15T02:19:24;47.42;;;26.63;;
13163;SDS011;6647;53.688;10.746;2023-04-15T02:20:45;52.47;;;26.25;;
13163;SDS011;6647;53.688;10.746;2023-04-15T02:22:06;47.58;;;24.80;;
13163;SDS011;6647;53.688;10.746;2023-04-15T02:23:28;60.72;;;29.30;;
13163;SDS011;6647;53.688;10.746;2023-04-15T02:24:49;48.72;;;26.33;;
13163;SDS011;6647;53.688;10.746;2023-04-15T02:26:10;49.17;;;27.42;;
13163;SDS011;6647;53.688;10.746;2023-04-15T02:27:31;51.33;;;27.25;;
13163;SDS011;6647;53.688;10.746;2023-04-15T02:28:52;50.15;;;28.15;;
13163;SDS011;6647;53.688;10.746;2023-04-15T02:30:13;48.05;;;26.67;;
13163;SDS011;6647;53.688;10.746;2023-04-15T02:31:34;48.10;;;25.48;;
13163;SDS011;6647;53.688;10.746;2023-04-15T02:32:59;42.47;;;25.65;;
13163;SDS011;6647;53.688;10.746;2023-04-15T02:34:20;42.67;;;26.23;;
13163;SDS011;6647;53.688;10.746;2023-04-15T02:35:41;44.50;;;26.35;;
13163;SDS011;6647;53.688;10.746;2023-04-15T02:37:04;47.80;;;26.92;;
13163;SDS011;6647;53.688;10.746;2023-04-15T02:38:25;43.72;;;25.35;;
13163;SDS011;6647;53.688;10.746;2023-04-15T02:39:46;41.75;;;25.10;;
13163;SDS011;6647;53.688;10.746;2023-04-15T02:41:08;39.95;;;23.83;;
13163;SDS011;6647;53.688;10.746;2023-04-15T02:42:29;41.20;;;26.08;;
13163;SDS011;6647;53.688;10.746;2023-04-15T02:43:51;44.78;;;26.58;;
13163;SDS011;6647;53.688;10.746;2023-04-15T02:45:12;48.90;;;28.10;;
13163;SDS011;6647;53.688;10.746;2023-04-15T02:46:33;44.78;;;27.80;;
13163;SDS011;6647;53.688;10.746;2023-04-15T02:47:53;46.97;;;26.30;;
13163;SDS011;6647;53.688;10.746;2023-04-15T02:49:15;42.65;;;26.35;;
13163;SDS011;6647;53.688;10.746;2023-04-15T02:50:35;43.47;;;27.13;;
13163;SDS011;6647;53.688;10.746;2023-04-15T02:51:58;47.13;;;28.15;;
13163;SDS011;6647;53.688;10.746;2023-04-15T02:53:19;47.38;;;27.67;;
13163;SDS011;6647;53.688;10.746;2023-04-15T02:54:40;44.65;;;26.40;;
13163;SDS011;6647;53.688;10.746;2023-04-15T02:56:01;41.25;;;25.85;;
13163;SDS011;6647;53.688;10.746;2023-04-15T02:57:22;48.53;;;28.27;;
13163;SDS011;6647;53.688;10.746;2023-04-15T02:58:43;44.67;;;27.92;;
13163;SDS011;6647;53.688;10.746;2023-04-15T03:00:05;44.65;;;27.60;;
13163;SDS011;6647;53.688;10.746;2023-04-15T03:01:28;43.55;;;26.17;;
13163;SDS011;6647;53.688;10.746;2023-04-15T03:02:49;47.33;;;28.30;;
13163;SDS011;6647;53.688;10.746;2023-04-15T03:04:15;48.47;;;29.70;;
13163;SDS011;6647;53.688;10.746;2023-04-15T03:05:36;49.72;;;30.13;;
13163;SDS011;6647;53.688;10.746;2023-04-15T03:06:58;51.40;;;29.05;;
13163;SDS011;6647;53.688;10.746;2023-04-15T03:08:20;51.60;;;30.55;;
13163;SDS011;6647;53.688;10.746;2023-04-15T03:09:41;48.22;;;29.30;;
13163;SDS011;6647;53.688;10.746;2023-04-15T03:11:02;54.08;;;31.33;;
13163;SDS011;6647;53.688;10.746;2023-04-15T03:12:23;51.25;;;29.70;;
13163;SDS011;6647;53.688;10.746;2023-04-15T03:13:44;49.17;;;29.80;;
13163;SDS011;6647;53.688;10.746;2023-04-15T03:15:05;53.13;;;29.75;;
13163;SDS011;6647;53.688;10.746;2023-04-15T03:16:27;57.47;;;32.05;;
13163;SDS011;6647;53.688;10.746;2023-04-15T03:17:48;51.67;;;29.98;;
13163;SDS011;6647;53.688;10.746;2023-04-15T03:19:09;50.83;;;31.65;;
13163;SDS011;6647;53.688;10.746;2023-04-15T03:20:30;46.60;;;29.05;;
13163;SDS011;6647;53.688;10.746;2023-04-15T03:21:51;48.67;;;29.63;;
13163;SDS011;6647;53.688;10.746;2023-04-15T03:23:12;51.17;;;28.27;;
13163;SDS011;6647;53.688;10.746;2023-04-15T03:24:33;48.33;;;30.95;;
13163;SDS011;6647;53.688;10.746;2023-04-15T03:25:54;50.90;;;31.08;;
13163;SDS011;6647;53.688;10.746;2023-04-15T03:27:17;55.83;;;33.03;;
13163;SDS011;6647;53.688;10.746;2023-04-15T03:28:37;51.45;;;32.10;;
13163;SDS011;6647;53.688;10.746;2023-04-15T03:29:58;55.63;;;32.60;;
13163;SDS011;6647;53.688;10.746;2023-04-15T03:31:19;52.17;;;32.00;;
13163;SDS011;6647;53.688;10.746;2023-04-15T03:32:40;48.17;;;29.98;;
13163;SDS011;6647;53.688;10.746;2023-04-15T03:34:01;50.88;;;31.95;;
13163;SDS011;6647;53.688;10.746;2023-04-15T03:35:22;51.55;;;32.38;;
13163;SDS011;6647;53.688;10.746;2023-04-15T03:36:43;53.38;;;32.10;;
13163;SDS011;6647;53.688;10.746;2023-04-15T03:38:04;52.28;;;32.80;;
13163;SDS011;6647;53.688;10.746;2023-04-15T03:39:25;51.17;;;31.17;;
13163;SDS011;6647;53.688;10.746;2023-04-15T03:40:46;47.95;;;30.52;;
13163;SDS011;6647;53.688;10.746;2023-04-15T03:42:07;49.70;;;30.55;;
13163;SDS011;6647;53.688;10.746;2023-04-15T03:43:28;51.08;;;31.67;;
13163;SDS011;6647;53.688;10.746;2023-04-15T03:44:49;47.63;;;30.60;;
13163;SDS011;6647;53.688;10.746;2023-04-15T03:46:10;45.88;;;29.45;;
13163;SDS011;6647;53.688;10.746;2023-04-15T03:47:30;47.30;;;32.13;;
13163;SDS011;6647;53.688;10.746;2023-04-15T03:48:51;53.45;;;30.20;;
13163;SDS011;6647;53.688;10.746;2023-04-15T03:50:12;51.45;;;30.65;;
13163;SDS011;6647;53.688;10.746;2023-04-15T03:51:33;51.42;;;30.75;;
13163;SDS011;6647;53.688;10.746;2023-04-15T03:52:54;50.63;;;29.40;;
13163;SDS011;6647;53.688;10.746;2023-04-15T03:54:15;49.03;;;30.55;;
13163;SDS011;6647;53.688;10.746;2023-04-15T03:55:36;48.92;;;31.88;;
13163;SDS011;6647;53.688;10.746;2023-04-15T03:56:57;50.58;;;30.90;;
13163;SDS011;6647;53.688;10.746;2023-04-15T03:58:18;48.63;;;30.50;;
13163;SDS011;6647;53.688;10.746;2023-04-15T03:59:39;52.47;;;33.17;;
13163;SDS011;6647;53.688;10.746;2023-04-15T04:01:00;46.55;;;29.70;;
13163;SDS011;6647;53.688;10.746;2023-04-15T04:02:21;51.28;;;31.90;;
13163;SDS011;6647;53.688;10.746;2023-04-15T04:03:42;53.50;;;32.95;;
13163;SDS011;6647;53.688;10.746;2023-04-15T04:05:03;55.45;;;32.10;;
13163;SDS011;6647;53.688;10.746;2023-04-15T04:06:24;50.65;;;30.85;;
13163;SDS011;6647;53.688;10.746;2023-04-15T04:07:45;52.83;;;32.22;;
13163;SDS011;6647;53.688;10.746;2023-04-15T04:09:06;57.97;;;33.38;;
13163;SDS011;6647;53.688;10.746;2023-04-15T04:10:27;55.20;;;33.83;;
13163;SDS011;6647;53.688;10.746;2023-04-15T04:11:48;54.45;;;33.58;;
13163;SDS011;6647;53.688;10.746;2023-04-15T04:13:09;52.78;;;30.63;;
13163;SDS011;6647;53.688;10.746;2023-04-15T04:14:30;49.95;;;31.95;;
13163;SDS011;6647;53.688;10.746;2023-04-15T04:15:50;55.67;;;32.50;;
13163;SDS011;6647;53.688;10.746;2023-04-15T04:17:11;53.05;;;33.05;;
13163;SDS011;6647;53.688;10.746;2023-04-15T04:18:32;56.42;;;33.90;;
13163;SDS011;6647;53.688;10.746;2023-04-15T04:19:53;51.67;;;31.65;;
13163;SDS011;6647;53.688;10.746;2023-04-15T04:21:14;58.33;;;32.88;;
13163;SDS011;6647;53.688;10.746;2023-04-15T04:22:36;51.50;;;30.80;;
13163;SDS011;6647;53.688;10.746;2023-04-15T04:23:59;55.13;;;32.05;;
13163;SDS011;6647;53.688;10.746;2023-04-15T04:25:19;52.55;;;30.92;;
13163;SDS011;6647;53.688;10.746;2023-04-15T04:26:40;58.25;;;32.47;;
13163;SDS011;6647;53.688;10.746;2023-04-15T04:28:01;59.97;;;32.13;;
13163;SDS011;6647;53.688;10.746;2023-04-15T04:29:23;57.67;;;33.60;;
13163;SDS011;6647;53.688;10.746;2023-04-15T04:30:43;51.45;;;30.40;;
13163;SDS011;6647;53.688;10.746;2023-04-15T04:32:04;60.15;;;33.97;;
13163;SDS011;6647;53.688;10.746;2023-04-15T04:33:26;54.20;;;31.80;;
13163;SDS011;6647;53.688;10.746;2023-04-15T04:34:46;60.85;;;33.15;;
13163;SDS011;6647;53.688;10.746;2023-04-15T04:36:07;56.33;;;33.47;;
13163;SDS011;6647;53.688;10.746;2023-04-15T04:37:28;61.20;;;34.50;;
13163;SDS011;6647;53.688;10.746;2023-04-15T04:38:49;62.33;;;33.03;;
13163;SDS011;6647;53.688;10.746;2023-04-15T04:40:10;53.33;;;31.25;;
13163;SDS011;6647;53.688;10.746;2023-04-15T04:41:31;61.30;;;33.00;;
13163;SDS011;6647;53.688;10.746;2023-04-15T04:42:52;62.85;;;33.58;;
13163;SDS011;6647;53.688;10.746;2023-04-15T04:44:13;64.57;;;34.33;;
13163;SDS011;6647;53.688;10.746;2023-04-15T04:45:34;57.63;;;32.65;;
13163;SDS011;6647;53.688;10.746;2023-04-15T04:46:55;53.00;;;31.27;;
13163;SDS011;6647;53.688;10.746;2023-04-15T04:48:16;61.65;;;32.67;;
13163;SDS011;6647;53.688;10.746;2023-04-15T04:49:37;58.20;;;31.80;;
13163;SDS011;6647;53.688;10.746;2023-04-15T04:50:58;59.40;;;31.13;;
13163;SDS011;6647;53.688;10.746;2023-04-15T04:52:19;55.58;;;31.23;;
13163;SDS011;6647;53.688;10.746;2023-04-15T04:53:40;54.70;;;29.25;;
13163;SDS011;6647;53.688;10.746;2023-04-15T04:55:02;54.72;;;29.40;;
13163;SDS011;6647;53.688;10.746;2023-04-15T04:56:23;56.83;;;32.80;;
13163;SDS011;6647;53.688;10.746;2023-04-15T04:57:44;57.72;;;29.40;;
13163;SDS011;6647;53.688;10.746;2023-04-15T04:59:05;55.65;;;30.27;;
13163;SDS011;6647;53.688;10.746;2023-04-15T05:00:27;63.20;;;32.95;;
13163;SDS011;6647;53.688;10.746;2023-04-15T05:01:48;60.78;;;30.98;;
13163;SDS011;6647;53.688;10.746;2023-04-15T05:03:09;57.78;;;29.38;;
13163;SDS011;6647;53.688;10.746;2023-04-15T05:04:30;61.10;;;31.50;;
13163;SDS011;6647;53.688;10.746;2023-04-15T05:05:51;66.93;;;32.42;;
13163;SDS011;6647;53.688;10.746;2023-04-15T05:07:12;57.70;;;30.27;;
13163;SDS011;6647;53.688;10.746;2023-04-15T05:08:33;63.33;;;30.92;;
13163;SDS011;6647;53.688;10.746;2023-04-15T05:09:54;65.43;;;31.75;;
13163;SDS011;6647;53.688;10.746;2023-04-15T05:11:15;69.97;;;32.90;;
13163;SDS011;6647;53.688;10.746;2023-04-15T05:12:36;65.20;;;33.53;;
13163;SDS011;6647;53.688;10.746;2023-04-15T05:13:57;64.78;;;33.13;;
13163;SDS011;6647;53.688;10.746;2023-04-15T05:15:20;61.30;;;30.95;;
13163;SDS011;6647;53.688;10.746;2023-04-15T05:16:41;59.33;;;31.52;;
13163;SDS011;6647;53.688;10.746;2023-04-15T05:18:02;70.22;;;30.52;;
13163;SDS011;6647;53.688;10.746;2023-04-15T05:19:23;66.00;;;32.10;;
13163;SDS011;6647;53.688;10.746;2023-04-15T05:20:44;62.22;;;32.75;;
13163;SDS011;6647;53.688;10.746;2023-04-15T05:22:05;63.78;;;33.15;;
13163;SDS011;6647;53.688;10.746;2023-04-15T05:23:26;70.05;;;32.95;;
13163;SDS011;6647;53.688;10.746;2023-04-15T05:24:47;68.97;;;35.28;;
13163;SDS011;6647;53.688;10.746;2023-04-15T05:26:08;71.03;;;33.33;;
13163;SDS011;6647;53.688;10.746;2023-04-15T05:27:29;64.38;;;33.05;;
13163;SDS011;6647;53.688;10.746;2023-04-15T05:28:50;68.97;;;35.05;;
13163;SDS011;6647;53.688;10.746;2023-04-15T05:30:11;64.13;;;34.50;;
13163;SDS011;6647;53.688;10.746;2023-04-15T05:31:32;71.45;;;35.50;;
13163;SDS011;6647;53.688;10.746;2023-04-15T05:32:53;74.00;;;35.17;;
13163;SDS011;6647;53.688;10.746;2023-04-15T05:34:14;69.13;;;32.45;;
13163;SDS011;6647;53.688;10.746;2023-04-15T05:35:35;65.18;;;32.55;;
13163;SDS011;6647;53.688;10.746;2023-04-15T05:36:56;71.32;;;34.83;;
13163;SDS011;6647;53.688;10.746;2023-04-15T05:38:17;62.28;;;33.58;;
13163;SDS011;6647;53.688;10.746;2023-04-15T05:39:38;67.38;;;32.78;;
13163;SDS011;6647;53.688;10.746;2023-04-15T05:40:59;68.63;;;35.97;;
13163;SDS011;6647;53.688;10.746;2023-04-15T05:42:20;71.32;;;34.45;;
13163;SDS011;6647;53.688;10.746;2023-04-15T05:43:41;70.65;;;32.92;;
13163;SDS011;6647;53.688;10.746;2023-04-15T05:45:02;70.40;;;34.15;;
13163;SDS011;6647;53.688;10.746;2023-04-15T05:46:28;70.65;;;35.60;;
13163;SDS011;6647;53.688;10.746;2023-04-15T05:47:49;66.45;;;32.47;;
13163;SDS011;6647;53.688;10.746;2023-04-15T05:49:10;65.03;;;33.45;;
13163;SDS011;6647;53.688;10.746;2023-04-15T05:50:31;66.50;;;33.72;;
13163;SDS011;6647;53.688;10.746;2023-04-15T05:51:52;72.82;;;36.67;;
13163;SDS011;6647;53.688;10.746;2023-04-15T05:53:13;68.22;;;32.92;;
13163;SDS011;6647;53.688;10.746;2023-04-15T05:54:34;68.43;;;33.17;;
13163;SDS011;6647;53.688;10.746;2023-04-15T05:55:55;65.72;;;35.55;;
13163;SDS011;6647;53.688;10.746;2023-04-15T05:57:17;66.70;;;34.22;;
13163;SDS011;6647;53.688;10.746;2023-04-15T05:58:38;65.65;;;34.60;;
13163;SDS011;6647;53.688;10.746;2023-04-15T05:59:58;65.55;;;34.28;;
13163;SDS011;6647;53.688;10.746;2023-04-15T06:01:19;67.18;;;33.45;;
13163;SDS011;6647;53.688;10.746;2023-04-15T06:02:41;70.18;;;34.20;;
13163;SDS011;6647;53.688;10.746;2023-04-15T06:04:02;70.28;;;35.05;;
13163;SDS011;6647;53.688;10.746;2023-04-15T06:05:23;68.25;;;33.45;;
13163;SDS011;6647;53.688;10.746;2023-04-15T06:06:44;62.88;;;32.75;;
13163;SDS011;6647;53.688;10.746;2023-04-15T06:08:05;67.63;;;34.40;;
13163;SDS011;6647;53.688;10.746;2023-04-15T06:09:27;72.63;;;34.92;;
13163;SDS011;6647;53.688;10.746;2023-04-15T06:10:48;72.55;;;34.67;;
13163;SDS011;6647;53.688;10.746;2023-04-15T06:12:09;66.38;;;32.78;;
13163;SDS011;6647;53.688;10.746;2023-04-15T06:13:31;77.00;;;33.63;;
13163;SDS011;6647;53.688;10.746;2023-04-15T06:14:53;70.70;;;34.60;;
13163;SDS011;6647;53.688;10.746;2023-04-15T06:16:14;73.43;;;35.63;;
13163;SDS011;6647;53.688;10.746;2023-04-15T06:17:35;75.63;;;34.95;;
13163;SDS011;6647;53.688;10.746;2023-04-15T06:18:56;71.68;;;34.47;;
13163;SDS011;6647;53.688;10.746;2023-04-15T06:20:17;72.60;;;36.72;;
13163;SDS011;6647;53.688;10.746;2023-04-15T06:21:38;75.53;;;34.40;;
13163;SDS011;6647;53.688;10.746;2023-04-15T06:22:59;76.70;;;36.03;;
13163;SDS011;6647;53.688;10.746;2023-04-15T06:24:20;67.82;;;33.08;;
13163;SDS011;6647;53.688;10.746;2023-04-15T06:25:41;79.60;;;37.92;;
13163;SDS011;6647;53.688;10.746;2023-04-15T06:27:02;76.22;;;36.95;;
13163;SDS011;6647;53.688;10.746;2023-04-15T06:28:23;77.20;;;37.45;;
13163;SDS011;6647;53.688;10.746;2023-04-15T06:29:44;70.97;;;36.78;;
13163;SDS011;6647;53.688;10.746;2023-04-15T06:31:05;78.80;;;38.03;;
13163;SDS011;6647;53.688;10.746;2023-04-15T06:32:26;73.55;;;35.63;;
13163;SDS011;6647;53.688;10.746;2023-04-15T06:33:47;70.30;;;36.17;;
13163;SDS011;6647;53.688;10.746;2023-04-15T06:35:08;71.20;;;36.63;;
13163;SDS011;6647;53.688;10.746;2023-04-15T06:36:29;76.50;;;36.95;;
13163;SDS011;6647;53.688;10.746;2023-04-15T06:37:51;73.90;;;36.75;;
13163;SDS011;6647;53.688;10.746;2023-04-15T06:39:12;78.53;;;35.65;;
13163;SDS011;6647;53.688;10.746;2023-04-15T06:40:33;68.57;;;34.45;;
13163;SDS011;6647;53.688;10.746;2023-04-15T06:41:54;74.97;;;36.00;;
13163;SDS011;6647;53.688;10.746;2023-04-15T06:43:16;65.43;;;36.10;;
13163;SDS011;6647;53.688;10.746;2023-04-15T06:44:36;72.38;;;36.67;;
13163;SDS011;6647;53.688;10.746;2023-04-15T06:45:58;77.07;;;35.67;;
13163;SDS011;6647;53.688;10.746;2023-04-15T06:47:18;72.88;;;34.60;;
13163;SDS011;6647;53.688;10.746;2023-04-15T06:48:39;75.80;;;37.03;;
13163;SDS011;6647;53.688;10.746;2023-04-15T06:50:00;72.60;;;34.88;;
13163;SDS011;6647;53.688;10.746;2023-04-15T06:51:21;76.90;;;36.42;;
13163;SDS011;6647;53.688;10.746;2023-04-15T06:52:43;71.32;;;36.75;;
13163;SDS011;6647;53.688;10.746;2023-04-15T06:54:04;74.97;;;35.15;;
13163;SDS011;6647;53.688;10.746;2023-04-15T06:55:25;72.78;;;36.60;;
13163;SDS011;6647;53.688;10.746;2023-04-15T06:56:46;80.72;;;36.08;;
13163;SDS011;6647;53.688;10.746;2023-04-15T06:58:07;74.43;;;35.35;;
13163;SDS011;6647;53.688;10.746;2023-04-15T06:59:28;70.65;;;36.30;;
13163;SDS011;6647;53.688;10.746;2023-04-15T07:00:49;85.18;;;36.78;;
13163;SDS011;6647;53.688;10.746;2023-04-15T07:02:10;76.85;;;35.00;;
13163;SDS011;6647;53.688;10.746;2023-04-15T07:03:33;72.78;;;36.83;;
13163;SDS011;6647;53.688;10.746;2023-04-15T07:04:54;77.30;;;37.47;;
13163;SDS011;6647;53.688;10.746;2023-04-15T07:06:16;73.75;;;35.72;;
13163;SDS011;6647;53.688;10.746;2023-04-15T07:07:37;69.72;;;33.20;;
13163;SDS011;6647;53.688;10.746;2023-04-15T07:08:58;68.07;;;34.53;;
13163;SDS011;6647;53.688;10.746;2023-04-15T07:10:19;69.47;;;35.40;;
13163;SDS011;6647;53.688;10.746;2023-04-15T07:11:40;77.95;;;35.30;;
13163;SDS011;6647;53.688;10.746;2023-04-15T07:13:01;67.82;;;36.88;;
13163;SDS011;6647;53.688;10.746;2023-04-15T07:14:22;72.53;;;33.67;;
13163;SDS011;6647;53.688;10.746;2023-04-15T07:15:43;68.88;;;35.00;;
13163;SDS011;6647;53.688;10.746;2023-04-15T07:17:04;78.53;;;35.88;;
13163;SDS011;6647;53.688;10.746;2023-04-15T07:18:25;73.57;;;37.35;;
13163;SDS011;6647;53.688;10.746;2023-04-15T07:19:45;67.50;;;34.30;;
13163;SDS011;6647;53.688;10.746;2023-04-15T07:21:06;70.97;;;35.40;;
13163;SDS011;6647;53.688;10.746;2023-04-15T07:22:27;82.30;;;38.30;;
13163;SDS011;6647;53.688;10.746;2023-04-15T07:23:48;72.05;;;36.60;;
13163;SDS011;6647;53.688;10.746;2023-04-15T07:25:09;71.53;;;33.75;;
13163;SDS011;6647;53.688;10.746;2023-04-15T07:26:30;80.90;;;37.22;;
13163;SDS011;6647;53.688;10.746;2023-04-15T07:27:51;69.60;;;35.78;;
13163;SDS011;6647;53.688;10.746;2023-04-15T07:29:13;74.70;;;37.90;;
13163;SDS011;6647;53.688;10.746;2023-04-15T07:30:34;71.90;;;35.95;;
13163;SDS011;6647;53.688;10.746;2023-04-15T07:31:54;74.03;;;36.55;;
13163;SDS011;6647;53.688;10.746;2023-04-15T07:33:17;77.97;;;33.83;;
13163;SDS011;6647;53.688;10.746;2023-04-15T07:34:38;82.75;;;39.00;;
13163;SDS011;6647;53.688;10.746;2023-04-15T07:35:59;76.38;;;35.95;;
13163;SDS011;6647;53.688;10.746;2023-04-15T07:37:20;81.05;;;36.38;;
13163;SDS011;6647;53.688;10.746;2023-04-15T07:38:41;68.38;;;34.63;;
13163;SDS011;6647;53.688;10.746;2023-04-15T07:40:02;76.13;;;36.10;;
13163;SDS011;6647;53.688;10.746;2023-04-15T07:41:25;71.97;;;34.13;;
13163;SDS011;6647;53.688;10.746;2023-04-15T07:42:47;68.50;;;34.42;;
13163;SDS011;6647;53.688;10.746;2023-04-15T07:44:10;67.53;;;35.40;;
13163;SDS011;6647;53.688;10.746;2023-04-15T07:45:32;67.68;;;34.45;;
13163;SDS011;6647;53.688;10.746;2023-04-15T07:48:18;65.43;;;33.17;;
13163;SDS011;6647;53.688;10.746;2023-04-15T07:49:40;74.38;;;35.60;;
13163;SDS011;6647;53.688;10.746;2023-04-15T07:51:04;63.70;;;33.00;;
13163;SDS011;6647;53.688;10.746;2023-04-15T07:52:25;64.55;;;34.40;;
13163;SDS011;6647;53.688;10.746;2023-04-15T07:53:47;69.10;;;35.10;;
13163;SDS011;6647;53.688;10.746;2023-04-15T07:55:09;71.90;;;32.47;;
13163;SDS011;6647;53.688;10.746;2023-04-15T07:56:30;59.92;;;33.38;;
13163;SDS011;6647;53.688;10.746;2023-04-15T07:57:51;73.35;;;34.60;;